sensor_id;sensor_type;location;lat;lon;timestamp;P1;durP1;ratioP1;P2;durP2;ratioP2
31298;SDS011;17927;52.350;13.402;2022-08-24T00:01:03;5.90;;;2.40;;
31298;SDS011;17927;52.350;13.402;2022-08-24T00:03:30;2.33;;;2.13;;
31298;SDS011;17927;52.350;13.402;2022-08-24T00:05:56;2.03;;;1.90;;
31298;SDS011;17927;52.350;13.402;2022-08-24T00:08:21;3.50;;;2.47;;
31298;SDS011;17927;52.350;13.402;2022-08-24T00:10:46;2.67;;;2.47;;
31298;SDS011;17927;52.350;13.402;2022-08-24T00:13:12;2.95;;;2.75;;
31298;SDS011;17927;52.350;13.402;2022-08-24T00:15:37;7.05;;;2.88;;
31298;SDS011;17927;52.350;13.402;2022-08-24T00:18:03;2.85;;;2.53;;
31298;SDS011;17927;52.350;13.402;2022-08-24T00:20:29;3.08;;;2.53;;
31298;SDS011;17927;52.350;13.402;2022-08-24T00:22:55;2.83;;;2.58;;
31298;SDS011;17927;52.350;13.402;2022-08-24T00:25:20;3.47;;;2.72;;
31298;SDS011;17927;52.350;13.402;2022-08-24T00:27:46;3.28;;;2.80;;
31298;SDS011;17927;52.350;13.402;2022-08-24T00:30:13;4.97;;;2.97;;
31298;SDS011;17927;52.350;13.402;2022-08-24T00:32:41;3.75;;;2.75;;
31298;SDS011;17927;52.350;13.402;2022-08-24T00:35:08;3.88;;;2.40;;
31298;SDS011;17927;52.350;13.402;2022-08-24T00:37:35;3.38;;;2.90;;
31298;SDS011;17927;52.350;13.402;2022-08-24T00:40:05;5.03;;;2.95;;
31298;SDS011;17927;52.350;13.402;2022-08-24T00:42:35;2.88;;;2.67;;
31298;SDS011;17927;52.350;13.402;2022-08-24T00:45:01;3.40;;;2.90;;
31298;SDS011;17927;52.350;13.402;2022-08-24T00:47:29;3.60;;;2.28;;
31298;SDS011;17927;52.350;13.402;2022-08-24T00:50:04;4.18;;;2.45;;
31298;SDS011;17927;52.350;13.402;2022-08-24T00:52:37;2.65;;;2.22;;
31298;SDS011;17927;52.350;13.402;2022-08-24T00:55:07;5.35;;;2.75;;
31298;SDS011;17927;52.350;13.402;2022-08-24T00:57:38;3.50;;;3.20;;
31298;SDS011;17927;52.350;13.402;2022-08-24T01:00:10;4.35;;;2.70;;
31298;SDS011;17927;52.350;13.402;2022-08-24T01:02:43;2.83;;;2.45;;
31298;SDS011;17927;52.350;13.402;2022-08-24T01:05:12;4.72;;;3.08;;
31298;SDS011;17927;52.350;13.402;2022-08-24T01:07:39;4.18;;;3.42;;
31298;SDS011;17927;52.350;13.402;2022-08-24T01:10:12;3.70;;;2.78;;
31298;SDS011;17927;52.350;13.402;2022-08-24T01:12:41;3.65;;;3.33;;
31298;SDS011;17927;52.350;13.402;2022-08-24T01:15:09;3.53;;;3.17;;
31298;SDS011;17927;52.350;13.402;2022-08-24T01:17:36;4.85;;;3.40;;
31298;SDS011;17927;52.350;13.402;2022-08-24T01:20:21;4.47;;;3.47;;
31298;SDS011;17927;52.350;13.402;2022-08-24T01:25:42;3.70;;;3.30;;
31298;SDS011;17927;52.350;13.402;2022-08-24T01:28:12;4.22;;;2.85;;
31298;SDS011;17927;52.350;13.402;2022-08-24T01:30:41;5.18;;;3.08;;
31298;SDS011;17927;52.350;13.402;2022-08-24T01:33:08;4.05;;;3.40;;
31298;SDS011;17927;52.350;13.402;2022-08-24T01:35:36;3.08;;;2.88;;
31298;SDS011;17927;52.350;13.402;2022-08-24T01:38:03;3.40;;;3.10;;
31298;SDS011;17927;52.350;13.402;2022-08-24T01:40:35;4.57;;;3.17;;
31298;SDS011;17927;52.350;13.402;2022-08-24T01:43:07;3.03;;;2.70;;
31298;SDS011;17927;52.350;13.402;2022-08-24T01:45:33;3.45;;;3.15;;
31298;SDS011;17927;52.350;13.402;2022-08-24T01:47:58;4.43;;;3.28;;
31298;SDS011;17927;52.350;13.402;2022-08-24T01:50:25;4.28;;;3.38;;
31298;SDS011;17927;52.350;13.402;2022-08-24T01:52:51;3.53;;;3.17;;
31298;SDS011;17927;52.350;13.402;2022-08-24T01:55:17;5.32;;;3.00;;
31298;SDS011;17927;52.350;13.402;2022-08-24T01:57:42;3.65;;;3.10;;
31298;SDS011;17927;52.350;13.402;2022-08-24T02:00:09;3.08;;;2.78;;
31298;SDS011;17927;52.350;13.402;2022-08-24T02:02:40;4.03;;;3.17;;
31298;SDS011;17927;52.350;13.402;2022-08-24T02:05:07;3.22;;;2.40;;
31298;SDS011;17927;52.350;13.402;2022-08-24T02:07:34;4.38;;;2.97;;
31298;SDS011;17927;52.350;13.402;2022-08-24T02:09:59;6.55;;;3.13;;
31298;SDS011;17927;52.350;13.402;2022-08-24T02:12:25;3.17;;;2.92;;
31298;SDS011;17927;52.350;13.402;2022-08-24T02:14:50;3.00;;;2.80;;
31298;SDS011;17927;52.350;13.402;2022-08-24T02:17:16;2.92;;;2.70;;
31298;SDS011;17927;52.350;13.402;2022-08-24T02:19:42;2.38;;;2.10;;
31298;SDS011;17927;52.350;13.402;2022-08-24T02:22:07;1.63;;;1.52;;
31298;SDS011;17927;52.350;13.402;2022-08-24T02:24:33;1.77;;;1.67;;
31298;SDS011;17927;52.350;13.402;2022-08-24T02:26:58;6.07;;;1.95;;
31298;SDS011;17927;52.350;13.402;2022-08-24T02:29:24;1.77;;;1.67;;
31298;SDS011;17927;52.350;13.402;2022-08-24T02:31:49;2.88;;;2.67;;
31298;SDS011;17927;52.350;13.402;2022-08-24T02:34:15;3.17;;;2.97;;
31298;SDS011;17927;52.350;13.402;2022-08-24T02:36:40;2.72;;;2.53;;
31298;SDS011;17927;52.350;13.402;2022-08-24T02:39:06;5.43;;;5.03;;
31298;SDS011;17927;52.350;13.402;2022-08-24T02:41:32;9.32;;;6.78;;
31298;SDS011;17927;52.350;13.402;2022-08-24T02:43:58;12.93;;;9.55;;
31298;SDS011;17927;52.350;13.402;2022-08-24T02:46:25;15.20;;;8.73;;
31298;SDS011;17927;52.350;13.402;2022-08-24T02:48:51;12.27;;;8.73;;
31298;SDS011;17927;52.350;13.402;2022-08-24T02:51:18;9.95;;;8.98;;
31298;SDS011;17927;52.350;13.402;2022-08-24T02:53:43;12.88;;;10.40;;
31298;SDS011;17927;52.350;13.402;2022-08-24T02:56:08;13.45;;;9.52;;
31298;SDS011;17927;52.350;13.402;2022-08-24T02:58:34;15.88;;;10.43;;
31298;SDS011;17927;52.350;13.402;2022-08-24T03:00:59;21.42;;;10.98;;
31298;SDS011;17927;52.350;13.402;2022-08-24T03:03:24;27.63;;;14.70;;
31298;SDS011;17927;52.350;13.402;2022-08-24T03:05:50;25.63;;;14.40;;
31298;SDS011;17927;52.350;13.402;2022-08-24T03:08:15;26.60;;;14.85;;
31298;SDS011;17927;52.350;13.402;2022-08-24T03:10:40;31.85;;;11.82;;
31298;SDS011;17927;52.350;13.402;2022-08-24T03:13:05;39.70;;;13.82;;
31298;SDS011;17927;52.350;13.402;2022-08-24T03:15:31;33.65;;;13.52;;
31298;SDS011;17927;52.350;13.402;2022-08-24T03:17:57;26.23;;;12.30;;
31298;SDS011;17927;52.350;13.402;2022-08-24T03:20:22;29.92;;;14.93;;
31298;SDS011;17927;52.350;13.402;2022-08-24T03:22:49;42.38;;;15.88;;
31298;SDS011;17927;52.350;13.402;2022-08-24T03:25:15;34.03;;;14.60;;
31298;SDS011;17927;52.350;13.402;2022-08-24T03:27:41;35.03;;;16.05;;
31298;SDS011;17927;52.350;13.402;2022-08-24T03:30:07;37.10;;;15.63;;
31298;SDS011;17927;52.350;13.402;2022-08-24T03:32:36;39.47;;;17.20;;
31298;SDS011;17927;52.350;13.402;2022-08-24T03:35:02;36.65;;;17.40;;
31298;SDS011;17927;52.350;13.402;2022-08-24T03:37:28;45.40;;;18.65;;
31298;SDS011;17927;52.350;13.402;2022-08-24T03:39:53;41.42;;;18.92;;
31298;SDS011;17927;52.350;13.402;2022-08-24T03:42:18;43.35;;;19.02;;
31298;SDS011;17927;52.350;13.402;2022-08-24T03:44:44;43.65;;;18.80;;
31298;SDS011;17927;52.350;13.402;2022-08-24T03:47:09;45.60;;;18.98;;
31298;SDS011;17927;52.350;13.402;2022-08-24T03:49:35;37.80;;;18.67;;
31298;SDS011;17927;52.350;13.402;2022-08-24T03:52:02;44.22;;;18.77;;
31298;SDS011;17927;52.350;13.402;2022-08-24T03:54:27;53.70;;;22.88;;
31298;SDS011;17927;52.350;13.402;2022-08-24T03:56:53;44.53;;;20.58;;
31298;SDS011;17927;52.350;13.402;2022-08-24T03:59:18;45.65;;;23.30;;
31298;SDS011;17927;52.350;13.402;2022-08-24T04:01:43;82.90;;;22.85;;
31298;SDS011;17927;52.350;13.402;2022-08-24T04:04:08;60.00;;;22.67;;
31298;SDS011;17927;52.350;13.402;2022-08-24T04:06:34;50.88;;;22.45;;
31298;SDS011;17927;52.350;13.402;2022-08-24T04:09:00;42.95;;;21.67;;
31298;SDS011;17927;52.350;13.402;2022-08-24T04:11:27;67.30;;;20.98;;
31298;SDS011;17927;52.350;13.402;2022-08-24T04:13:53;66.30;;;21.25;;
31298;SDS011;17927;52.350;13.402;2022-08-24T04:16:20;66.10;;;22.10;;
31298;SDS011;17927;52.350;13.402;2022-08-24T04:18:47;64.78;;;22.20;;
31298;SDS011;17927;52.350;13.402;2022-08-24T04:21:16;63.20;;;21.50;;
31298;SDS011;17927;52.350;13.402;2022-08-24T04:23:44;72.90;;;19.92;;
31298;SDS011;17927;52.350;13.402;2022-08-24T04:26:10;94.93;;;19.63;;
31298;SDS011;17927;52.350;13.402;2022-08-24T04:28:35;66.95;;;21.25;;
31298;SDS011;17927;52.350;13.402;2022-08-24T04:31:02;47.20;;;19.30;;
31298;SDS011;17927;52.350;13.402;2022-08-24T04:33:29;71.50;;;19.58;;
31298;SDS011;17927;52.350;13.402;2022-08-24T04:35:55;49.72;;;18.42;;
31298;SDS011;17927;52.350;13.402;2022-08-24T04:38:21;71.97;;;17.85;;
31298;SDS011;17927;52.350;13.402;2022-08-24T04:40:47;43.38;;;18.85;;
31298;SDS011;17927;52.350;13.402;2022-08-24T04:43:13;71.40;;;18.65;;
31298;SDS011;17927;52.350;13.402;2022-08-24T04:45:40;80.57;;;18.58;;
31298;SDS011;17927;52.350;13.402;2022-08-24T04:48:07;60.33;;;18.17;;
31298;SDS011;17927;52.350;13.402;2022-08-24T04:50:33;51.08;;;19.17;;
31298;SDS011;17927;52.350;13.402;2022-08-24T04:53:03;64.63;;;19.38;;
31298;SDS011;17927;52.350;13.402;2022-08-24T04:55:29;73.97;;;20.40;;
31298;SDS011;17927;52.350;13.402;2022-08-24T04:57:55;65.57;;;22.02;;
31298;SDS011;17927;52.350;13.402;2022-08-24T05:00:21;48.63;;;21.45;;
31298;SDS011;17927;52.350;13.402;2022-08-24T05:02:47;60.35;;;22.55;;
31298;SDS011;17927;52.350;13.402;2022-08-24T05:05:13;65.03;;;22.35;;
31298;SDS011;17927;52.350;13.402;2022-08-24T05:07:38;57.60;;;20.60;;
31298;SDS011;17927;52.350;13.402;2022-08-24T05:10:04;34.78;;;19.13;;
31298;SDS011;17927;52.350;13.402;2022-08-24T05:12:30;34.05;;;18.50;;
31298;SDS011;17927;52.350;13.402;2022-08-24T05:14:56;38.13;;;17.73;;
31298;SDS011;17927;52.350;13.402;2022-08-24T05:17:22;38.00;;;19.85;;
31298;SDS011;17927;52.350;13.402;2022-08-24T05:19:47;40.60;;;19.23;;
31298;SDS011;17927;52.350;13.402;2022-08-24T05:22:14;41.55;;;19.67;;
31298;SDS011;17927;52.350;13.402;2022-08-24T05:24:39;31.80;;;17.42;;
31298;SDS011;17927;52.350;13.402;2022-08-24T05:27:04;32.38;;;17.77;;
31298;SDS011;17927;52.350;13.402;2022-08-24T05:29:30;32.00;;;19.58;;
31298;SDS011;17927;52.350;13.402;2022-08-24T05:31:58;31.65;;;18.13;;
31298;SDS011;17927;52.350;13.402;2022-08-24T05:34:23;45.00;;;21.38;;
31298;SDS011;17927;52.350;13.402;2022-08-24T05:36:48;35.28;;;20.13;;
31298;SDS011;17927;52.350;13.402;2022-08-24T05:39:14;32.15;;;19.08;;
31298;SDS011;17927;52.350;13.402;2022-08-24T05:41:40;38.63;;;20.80;;
31298;SDS011;17927;52.350;13.402;2022-08-24T05:44:07;33.22;;;20.73;;
31298;SDS011;17927;52.350;13.402;2022-08-24T05:46:32;37.13;;;19.70;;
31298;SDS011;17927;52.350;13.402;2022-08-24T05:48:58;36.95;;;19.38;;
31298;SDS011;17927;52.350;13.402;2022-08-24T05:51:23;34.58;;;19.35;;
31298;SDS011;17927;52.350;13.402;2022-08-24T05:53:49;36.55;;;20.83;;
31298;SDS011;17927;52.350;13.402;2022-08-24T05:56:15;34.72;;;20.83;;
31298;SDS011;17927;52.350;13.402;2022-08-24T05:58:42;36.03;;;19.38;;
31298;SDS011;17927;52.350;13.402;2022-08-24T06:01:17;35.15;;;20.80;;
31298;SDS011;17927;52.350;13.402;2022-08-24T06:03:45;32.08;;;19.48;;
31298;SDS011;17927;52.350;13.402;2022-08-24T06:06:12;32.30;;;18.75;;
31298;SDS011;17927;52.350;13.402;2022-08-24T06:08:38;36.03;;;21.45;;
31298;SDS011;17927;52.350;13.402;2022-08-24T06:11:06;35.67;;;20.70;;
31298;SDS011;17927;52.350;13.402;2022-08-24T06:13:31;36.47;;;19.35;;
31298;SDS011;17927;52.350;13.402;2022-08-24T06:16:01;30.02;;;18.55;;
31298;SDS011;17927;52.350;13.402;2022-08-24T06:18:27;34.28;;;21.15;;
31298;SDS011;17927;52.350;13.402;2022-08-24T06:20:53;37.88;;;21.88;;
31298;SDS011;17927;52.350;13.402;2022-08-24T06:23:18;39.88;;;21.08;;
31298;SDS011;17927;52.350;13.402;2022-08-24T06:25:43;32.03;;;19.42;;
31298;SDS011;17927;52.350;13.402;2022-08-24T06:28:28;34.53;;;20.50;;
31298;SDS011;17927;52.350;13.402;2022-08-24T06:31:04;38.28;;;21.85;;
31298;SDS011;17927;52.350;13.402;2022-08-24T06:33:31;31.35;;;20.30;;
31298;SDS011;17927;52.350;13.402;2022-08-24T06:35:56;34.90;;;20.58;;
31298;SDS011;17927;52.350;13.402;2022-08-24T06:38:21;35.80;;;20.10;;
31298;SDS011;17927;52.350;13.402;2022-08-24T06:40:47;37.70;;;21.48;;
31298;SDS011;17927;52.350;13.402;2022-08-24T06:43:12;29.60;;;19.50;;
31298;SDS011;17927;52.350;13.402;2022-08-24T06:45:39;27.98;;;18.38;;
31298;SDS011;17927;52.350;13.402;2022-08-24T06:48:07;30.97;;;19.73;;
31298;SDS011;17927;52.350;13.402;2022-08-24T06:50:33;28.05;;;17.75;;
31298;SDS011;17927;52.350;13.402;2022-08-24T06:52:58;32.85;;;17.80;;
31298;SDS011;17927;52.350;13.402;2022-08-24T06:55:25;26.63;;;17.90;;
31298;SDS011;17927;52.350;13.402;2022-08-24T06:57:51;28.17;;;18.05;;
31298;SDS011;17927;52.350;13.402;2022-08-24T07:00:16;30.20;;;18.80;;
31298;SDS011;17927;52.350;13.402;2022-08-24T07:02:42;25.63;;;17.75;;
31298;SDS011;17927;52.350;13.402;2022-08-24T07:05:07;25.27;;;17.38;;
31298;SDS011;17927;52.350;13.402;2022-08-24T07:07:32;37.20;;;17.90;;
31298;SDS011;17927;52.350;13.402;2022-08-24T07:09:58;28.90;;;18.70;;
31298;SDS011;17927;52.350;13.402;2022-08-24T07:12:24;32.13;;;16.30;;
31298;SDS011;17927;52.350;13.402;2022-08-24T07:14:50;20.27;;;15.60;;
31298;SDS011;17927;52.350;13.402;2022-08-24T07:17:16;24.90;;;15.75;;
31298;SDS011;17927;52.350;13.402;2022-08-24T07:19:42;24.15;;;16.25;;
31298;SDS011;17927;52.350;13.402;2022-08-24T07:22:07;27.63;;;19.27;;
31298;SDS011;17927;52.350;13.402;2022-08-24T07:24:33;27.10;;;18.80;;
31298;SDS011;17927;52.350;13.402;2022-08-24T07:26:58;25.75;;;17.88;;
31298;SDS011;17927;52.350;13.402;2022-08-24T07:29:23;29.55;;;17.45;;
31298;SDS011;17927;52.350;13.402;2022-08-24T07:31:48;28.05;;;19.27;;
31298;SDS011;17927;52.350;13.402;2022-08-24T07:34:14;29.83;;;20.70;;
31298;SDS011;17927;52.350;13.402;2022-08-24T07:36:39;28.85;;;18.52;;
31298;SDS011;17927;52.350;13.402;2022-08-24T07:39:05;26.42;;;19.13;;
31298;SDS011;17927;52.350;13.402;2022-08-24T07:41:30;25.38;;;18.02;;
31298;SDS011;17927;52.350;13.402;2022-08-24T07:43:56;32.10;;;20.40;;
31298;SDS011;17927;52.350;13.402;2022-08-24T07:46:22;25.50;;;18.17;;
31298;SDS011;17927;52.350;13.402;2022-08-24T07:48:47;30.05;;;18.55;;
31298;SDS011;17927;52.350;13.402;2022-08-24T07:51:14;26.13;;;17.63;;
31298;SDS011;17927;52.350;13.402;2022-08-24T07:53:41;23.17;;;16.58;;
31298;SDS011;17927;52.350;13.402;2022-08-24T07:56:07;29.23;;;18.10;;
31298;SDS011;17927;52.350;13.402;2022-08-24T07:58:33;27.58;;;18.02;;
31298;SDS011;17927;52.350;13.402;2022-08-24T08:00:59;23.20;;;17.45;;
31298;SDS011;17927;52.350;13.402;2022-08-24T08:03:24;17.42;;;15.15;;
31298;SDS011;17927;52.350;13.402;2022-08-24T08:05:55;24.70;;;16.23;;
31298;SDS011;17927;52.350;13.402;2022-08-24T08:08:21;20.83;;;14.70;;
31298;SDS011;17927;52.350;13.402;2022-08-24T08:10:47;19.75;;;16.17;;
31298;SDS011;17927;52.350;13.402;2022-08-24T08:13:12;19.95;;;16.90;;
31298;SDS011;17927;52.350;13.402;2022-08-24T08:15:38;20.83;;;16.48;;
31298;SDS011;17927;52.350;13.402;2022-08-24T08:18:03;21.73;;;16.05;;
31298;SDS011;17927;52.350;13.402;2022-08-24T08:20:28;23.13;;;15.73;;
31298;SDS011;17927;52.350;13.402;2022-08-24T08:22:53;21.58;;;17.05;;
31298;SDS011;17927;52.350;13.402;2022-08-24T08:25:37;21.75;;;16.55;;
31298;SDS011;17927;52.350;13.402;2022-08-24T08:28:04;27.48;;;17.17;;
31298;SDS011;17927;52.350;13.402;2022-08-24T08:30:30;22.73;;;16.55;;
31298;SDS011;17927;52.350;13.402;2022-08-24T08:32:56;24.95;;;15.85;;
31298;SDS011;17927;52.350;13.402;2022-08-24T08:35:21;23.55;;;16.42;;
31298;SDS011;17927;52.350;13.402;2022-08-24T08:37:46;29.58;;;18.52;;
31298;SDS011;17927;52.350;13.402;2022-08-24T08:40:17;22.60;;;16.45;;
31298;SDS011;17927;52.350;13.402;2022-08-24T08:42:59;26.38;;;15.52;;
31298;SDS011;17927;52.350;13.402;2022-08-24T08:48:31;15.95;;;12.55;;
31298;SDS011;17927;52.350;13.402;2022-08-24T08:57:14;16.52;;;11.05;;
31298;SDS011;17927;52.350;13.402;2022-08-24T09:00:09;13.38;;;10.55;;
31298;SDS011;17927;52.350;13.402;2022-08-24T09:06:05;14.23;;;10.52;;
31298;SDS011;17927;52.350;13.402;2022-08-24T09:14:07;31.77;;;14.27;;
31298;SDS011;17927;52.350;13.402;2022-08-24T09:20:03;13.73;;;9.23;;
31298;SDS011;17927;52.350;13.402;2022-08-24T09:25:46;11.43;;;9.15;;
31298;SDS011;17927;52.350;13.402;2022-08-24T09:28:15;11.98;;;9.13;;
31298;SDS011;17927;52.350;13.402;2022-08-24T09:36:07;12.23;;;8.33;;
31298;SDS011;17927;52.350;13.402;2022-08-24T09:46:46;11.23;;;7.50;;
31298;SDS011;17927;52.350;13.402;2022-08-24T09:49:40;14.73;;;7.30;;
31298;SDS011;17927;52.350;13.402;2022-08-24T09:58:08;13.10;;;7.78;;
31298;SDS011;17927;52.350;13.402;2022-08-24T10:00:46;13.25;;;7.57;;
31298;SDS011;17927;52.350;13.402;2022-08-24T10:03:27;10.15;;;6.68;;
31298;SDS011;17927;52.350;13.402;2022-08-24T10:11:49;7.43;;;6.18;;
31298;SDS011;17927;52.350;13.402;2022-08-24T10:14:30;53.72;;;10.18;;
31298;SDS011;17927;52.350;13.402;2022-08-24T10:19:58;8.00;;;6.65;;
31298;SDS011;17927;52.350;13.402;2022-08-24T10:22:46;9.48;;;6.95;;
31298;SDS011;17927;52.350;13.402;2022-08-24T10:25:36;7.43;;;6.50;;
31298;SDS011;17927;52.350;13.402;2022-08-24T10:28:18;15.77;;;7.88;;
31298;SDS011;17927;52.350;13.402;2022-08-24T10:31:07;8.15;;;7.35;;
31298;SDS011;17927;52.350;13.402;2022-08-24T10:36:59;20.10;;;7.35;;
31298;SDS011;17927;52.350;13.402;2022-08-24T10:40:03;10.05;;;6.50;;
31298;SDS011;17927;52.350;13.402;2022-08-24T10:45:49;11.30;;;7.70;;
31298;SDS011;17927;52.350;13.402;2022-08-24T10:50:58;37.50;;;7.70;;
31298;SDS011;17927;52.350;13.402;2022-08-24T10:53:38;11.27;;;6.95;;
31298;SDS011;17927;52.350;13.402;2022-08-24T10:58:40;13.45;;;7.15;;
31298;SDS011;17927;52.350;13.402;2022-08-24T11:01:12;11.05;;;6.50;;
31298;SDS011;17927;52.350;13.402;2022-08-24T11:03:58;7.93;;;7.10;;
31298;SDS011;17927;52.350;13.402;2022-08-24T11:06:30;6.78;;;6.13;;
31298;SDS011;17927;52.350;13.402;2022-08-24T11:09:03;7.22;;;5.85;;
31298;SDS011;17927;52.350;13.402;2022-08-24T11:11:42;7.65;;;6.25;;
31298;SDS011;17927;52.350;13.402;2022-08-24T11:16:41;7.10;;;5.68;;
31298;SDS011;17927;52.350;13.402;2022-08-24T11:19:13;6.13;;;5.18;;
31298;SDS011;17927;52.350;13.402;2022-08-24T11:22:01;6.35;;;5.40;;
31298;SDS011;17927;52.350;13.402;2022-08-24T11:24:45;7.10;;;5.63;;
31298;SDS011;17927;52.350;13.402;2022-08-24T11:32:29;6.30;;;5.72;;
31298;SDS011;17927;52.350;13.402;2022-08-24T11:38:13;5.43;;;4.93;;
31298;SDS011;17927;52.350;13.402;2022-08-24T11:40:42;9.55;;;5.55;;
31298;SDS011;17927;52.350;13.402;2022-08-24T11:51:28;7.60;;;4.18;;
31298;SDS011;17927;52.350;13.402;2022-08-24T11:56:37;7.28;;;5.70;;
31298;SDS011;17927;52.350;13.402;2022-08-24T11:59:11;704.08;;;68.68;;
31298;SDS011;17927;52.350;13.402;2022-08-24T12:01:46;61.75;;;9.90;;
31298;SDS011;17927;52.350;13.402;2022-08-24T12:13:19;88.55;;;10.68;;
31298;SDS011;17927;52.350;13.402;2022-08-24T12:16:04;10.75;;;5.32;;
31298;SDS011;17927;52.350;13.402;2022-08-24T12:18:45;5.88;;;5.30;;
31298;SDS011;17927;52.350;13.402;2022-08-24T12:21:17;6.00;;;4.93;;
31298;SDS011;17927;52.350;13.402;2022-08-24T12:23:48;8.00;;;4.65;;
31298;SDS011;17927;52.350;13.402;2022-08-24T12:26:23;6.43;;;5.55;;
31298;SDS011;17927;52.350;13.402;2022-08-24T12:28:54;5.68;;;5.18;;
31298;SDS011;17927;52.350;13.402;2022-08-24T12:31:41;6.60;;;5.90;;
31298;SDS011;17927;52.350;13.402;2022-08-24T12:34:16;14.00;;;5.30;;
31298;SDS011;17927;52.350;13.402;2022-08-24T12:39:21;7.55;;;5.60;;
31298;SDS011;17927;52.350;13.402;2022-08-24T12:41:57;9.60;;;5.15;;
31298;SDS011;17927;52.350;13.402;2022-08-24T12:44:33;12.20;;;5.38;;
31298;SDS011;17927;52.350;13.402;2022-08-24T12:47:04;20.63;;;5.82;;
31298;SDS011;17927;52.350;13.402;2022-08-24T12:49:32;9.32;;;5.15;;
31298;SDS011;17927;52.350;13.402;2022-08-24T12:52:29;17.33;;;8.02;;
31298;SDS011;17927;52.350;13.402;2022-08-24T12:55:13;8.98;;;6.60;;
31298;SDS011;17927;52.350;13.402;2022-08-24T12:57:49;6.10;;;5.00;;
31298;SDS011;17927;52.350;13.402;2022-08-24T13:00:31;5.10;;;4.80;;
31298;SDS011;17927;52.350;13.402;2022-08-24T13:03:04;6.82;;;5.88;;
31298;SDS011;17927;52.350;13.402;2022-08-24T13:05:41;10.45;;;6.38;;
31298;SDS011;17927;52.350;13.402;2022-08-24T13:08:12;5.13;;;4.63;;
31298;SDS011;17927;52.350;13.402;2022-08-24T13:10:44;4.80;;;4.43;;
31298;SDS011;17927;52.350;13.402;2022-08-24T13:13:22;7.35;;;4.53;;
31298;SDS011;17927;52.350;13.402;2022-08-24T13:16:08;4.60;;;4.20;;
31298;SDS011;17927;52.350;13.402;2022-08-24T13:21:37;5.55;;;3.85;;
31298;SDS011;17927;52.350;13.402;2022-08-24T13:26:55;4.97;;;4.57;;
31298;SDS011;17927;52.350;13.402;2022-08-24T13:29:27;5.78;;;4.00;;
31298;SDS011;17927;52.350;13.402;2022-08-24T13:31:57;4.45;;;4.07;;
31298;SDS011;17927;52.350;13.402;2022-08-24T13:37:15;13.25;;;4.47;;
31298;SDS011;17927;52.350;13.402;2022-08-24T13:45:35;5.70;;;4.22;;
31298;SDS011;17927;52.350;13.402;2022-08-24T13:50:44;12.77;;;4.23;;
31298;SDS011;17927;52.350;13.402;2022-08-24T13:56:23;5.00;;;4.30;;
31298;SDS011;17927;52.350;13.402;2022-08-24T13:59:02;4.38;;;3.97;;
31298;SDS011;17927;52.350;13.402;2022-08-24T14:04:46;4.28;;;3.97;;
31298;SDS011;17927;52.350;13.402;2022-08-24T14:10:35;4.35;;;4.00;;
31298;SDS011;17927;52.350;13.402;2022-08-24T14:16:09;4.93;;;4.05;;
31298;SDS011;17927;52.350;13.402;2022-08-24T14:19:25;5.25;;;3.88;;
31298;SDS011;17927;52.350;13.402;2022-08-24T14:25:13;4.93;;;3.75;;
31298;SDS011;17927;52.350;13.402;2022-08-24T14:27:43;4.53;;;4.15;;
31298;SDS011;17927;52.350;13.402;2022-08-24T14:40:52;4.88;;;3.15;;
31298;SDS011;17927;52.350;13.402;2022-08-24T14:46:49;3.28;;;2.97;;
31298;SDS011;17927;52.350;13.402;2022-08-24T14:49:27;3.75;;;3.05;;
31298;SDS011;17927;52.350;13.402;2022-08-24T14:52:03;4.80;;;3.35;;
31298;SDS011;17927;52.350;13.402;2022-08-24T15:00:47;4.63;;;3.65;;
31298;SDS011;17927;52.350;13.402;2022-08-24T15:03:27;4.30;;;3.53;;
31298;SDS011;17927;52.350;13.402;2022-08-24T15:09:08;4.05;;;3.65;;
31298;SDS011;17927;52.350;13.402;2022-08-24T15:11:41;6.70;;;3.47;;
31298;SDS011;17927;52.350;13.402;2022-08-24T15:14:08;3.88;;;3.55;;
31298;SDS011;17927;52.350;13.402;2022-08-24T15:16:46;10.15;;;9.05;;
31298;SDS011;17927;52.350;13.402;2022-08-24T15:19:16;6.03;;;5.40;;
31298;SDS011;17927;52.350;13.402;2022-08-24T15:24:44;6.35;;;5.60;;
31298;SDS011;17927;52.350;13.402;2022-08-24T15:27:21;5.00;;;4.60;;
31298;SDS011;17927;52.350;13.402;2022-08-24T15:30:03;9.70;;;8.85;;
31298;SDS011;17927;52.350;13.402;2022-08-24T15:32:39;8.23;;;6.97;;
31298;SDS011;17927;52.350;13.402;2022-08-24T15:35:21;6.60;;;5.75;;
31298;SDS011;17927;52.350;13.402;2022-08-24T15:37:52;7.20;;;5.93;;
31298;SDS011;17927;52.350;13.402;2022-08-24T15:40:25;5.68;;;5.15;;
31298;SDS011;17927;52.350;13.402;2022-08-24T15:43:01;8.88;;;5.25;;
31298;SDS011;17927;52.350;13.402;2022-08-24T15:45:29;10.48;;;6.13;;
31298;SDS011;17927;52.350;13.402;2022-08-24T15:47:55;6.47;;;5.88;;
31298;SDS011;17927;52.350;13.402;2022-08-24T15:52:54;7.10;;;6.50;;
31298;SDS011;17927;52.350;13.402;2022-08-24T15:55:30;8.40;;;7.07;;
31298;SDS011;17927;52.350;13.402;2022-08-24T15:58:28;7.90;;;7.30;;
31298;SDS011;17927;52.350;13.402;2022-08-24T16:03:53;5.68;;;5.05;;
31298;SDS011;17927;52.350;13.402;2022-08-24T16:06:25;7.13;;;6.43;;
31298;SDS011;17927;52.350;13.402;2022-08-24T16:11:47;6.25;;;5.68;;
31298;SDS011;17927;52.350;13.402;2022-08-24T16:14:24;4.82;;;4.38;;
31298;SDS011;17927;52.350;13.402;2022-08-24T16:16:50;10.98;;;5.70;;
31298;SDS011;17927;52.350;13.402;2022-08-24T16:19:17;9.30;;;7.10;;
31298;SDS011;17927;52.350;13.402;2022-08-24T16:21:55;9.85;;;8.27;;
31298;SDS011;17927;52.350;13.402;2022-08-24T16:24:33;5.47;;;4.97;;
31298;SDS011;17927;52.350;13.402;2022-08-24T16:27:03;5.68;;;4.30;;
31298;SDS011;17927;52.350;13.402;2022-08-24T16:32:22;10.30;;;6.43;;
31298;SDS011;17927;52.350;13.402;2022-08-24T16:35:12;6.03;;;4.82;;
31298;SDS011;17927;52.350;13.402;2022-08-24T16:37:43;14.80;;;6.05;;
31298;SDS011;17927;52.350;13.402;2022-08-24T16:40:08;7.95;;;5.88;;
31298;SDS011;17927;52.350;13.402;2022-08-24T16:42:34;16.58;;;9.32;;
31298;SDS011;17927;52.350;13.402;2022-08-24T16:45:01;9.30;;;7.03;;
31298;SDS011;17927;52.350;13.402;2022-08-24T16:47:31;7.97;;;5.75;;
31298;SDS011;17927;52.350;13.402;2022-08-24T16:49:57;5.57;;;4.72;;
31298;SDS011;17927;52.350;13.402;2022-08-24T16:52:22;11.32;;;6.00;;
31298;SDS011;17927;52.350;13.402;2022-08-24T16:54:48;6.40;;;4.40;;
31298;SDS011;17927;52.350;13.402;2022-08-24T16:59:47;9.00;;;6.78;;
31298;SDS011;17927;52.350;13.402;2022-08-24T17:02:14;6.75;;;5.25;;
31298;SDS011;17927;52.350;13.402;2022-08-24T17:04:41;6.15;;;5.05;;
31298;SDS011;17927;52.350;13.402;2022-08-24T17:07:08;7.95;;;6.63;;
31298;SDS011;17927;52.350;13.402;2022-08-24T17:09:38;7.35;;;5.55;;
31298;SDS011;17927;52.350;13.402;2022-08-24T17:12:05;8.70;;;7.85;;
31298;SDS011;17927;52.350;13.402;2022-08-24T17:14:30;6.43;;;5.43;;
31298;SDS011;17927;52.350;13.402;2022-08-24T17:16:58;5.25;;;4.78;;
31298;SDS011;17927;52.350;13.402;2022-08-24T17:19:24;8.57;;;4.20;;
31298;SDS011;17927;52.350;13.402;2022-08-24T17:21:53;5.40;;;3.95;;
31298;SDS011;17927;52.350;13.402;2022-08-24T17:24:19;5.53;;;4.10;;
31298;SDS011;17927;52.350;13.402;2022-08-24T17:26:46;7.68;;;4.65;;
31298;SDS011;17927;52.350;13.402;2022-08-24T17:29:12;10.52;;;5.65;;